Pagina principale
METAR-TAF:

METAR-TAF

Aeroporti :

La Chaux-de-Fonds, Svizzera

latitudine: 47-05-03N, longitudine: 006-47-37E, altezza: 1027 m

Osservazione

Il bollettino è stato emesso 21 minuti fa, alle 05:20 UTC
Vento 8 kt da ovest/sud-ovest, variando fra sud/sud-ovest e ovest
Temperature -1°C
Umidità 93%
Pressione 1007 hPa
Visibilità: 3000 m
Cielo coperto ad un'altezza di 500 ft
neve debole, foschia

METAR: LSGC 180520Z AUTO 24008KT 200V270 3000 -SN BR OVC005 M01/M02 Q1007

Ora: 06:41 (05:41 UTC)

Previsione

Il bollettino è stato emesso 16 minuti fa, alle 05:25 UTC
Previsione valida dal 18 alle 06 UTC al 18 alle 15 UTC
Vento 7 kt da sud-ovest
Visibilità: 3500 m
Cielo coperto ad un'altezza di 800 ft
neve debole
Evoluzione graduale
dal 18 alle 08 UTC al 18 alle 11 UTC
Visibilità: 6000 m
Nuvoloso ad un'altezza di 1200 ft

TAF: LSGC 180525Z 1806/1815 23007KT 3500 -SN OVC008 BECMG 1808/1811 6000 BKN012

Osservazioni e previsioni meteorologiche di più di 4000 aeroporti (messaggi METAR e TAF).

Le stazioni disponibili sono rappresentate dai dischi gialli e rossi sulla carta.

Puntare il mouse per vedere il nome della stazione.

Clicca sopra per visualizzare le osservazioni e previsioni meteorologiche.

Per cambiare la mappa : fare clic sui pulsanti verdi con una croce nera per ingrandire, il pulsante verde con un trattino per diminuire, o sulla freccia verde per le mappe adiacenti.


METAR-TAF: